Time;durP1;ratioP1;P1;durP2;ratioP2;P2;SDS_P1;SDS_P2;PMS_P1;PMS_P2;Temp;Humidity;BMP_temperature;BMP_pressure;BME280_temperature;BME280_humidity;BME280_pressure;Samples;Min_cycle;Max_cycle;Signal;HPM_P1;HPM_P2
2023/02/25 00:01:26;;;;;;;18.83;8.77;;;8.10;99.90;;;;;;5030244;28;20401;-81
2023/02/25 00:03:54;;;;;;;17.75;9.90;;;8.10;99.90;;;;;;5037515;28;20162;-81
2023/02/25 00:06:21;;;;;;;19.92;8.95;;;8.20;99.90;;;;;;5055345;28;20081;-81
2023/02/25 00:08:50;;;;;;;15.60;9.65;;;8.20;99.90;;;;;;5034622;28;20041;-81
2023/02/25 00:11:19;;;;;;;22.95;10.30;;;8.20;99.90;;;;;;5032478;28;20053;-82
2023/02/25 00:13:45;;;;;;;20.35;8.80;;;8.20;99.90;;;;;;5037073;28;20060;-81
2023/02/25 00:16:13;;;;;;;19.92;9.30;;;8.20;99.90;;;;;;5036695;28;20087;-81
2023/02/25 00:18:43;;;;;;;17.55;9.15;;;8.10;99.90;;;;;;5040512;28;20119;-82
2023/02/25 00:21:16;;;;;;;17.13;9.70;;;8.10;99.90;;;;;;5034031;28;20473;-82
2023/02/25 00:23:45;;;;;;;19.20;10.52;;;8.10;99.90;;;;;;5021090;28;20324;-82
2023/02/25 00:26:14;;;;;;;22.83;9.73;;;8.20;99.90;;;;;;5026005;28;20085;-82
2023/02/25 00:28:40;;;;;;;19.15;10.35;;;8.20;99.90;;;;;;5043828;28;20516;-81
2023/02/25 00:31:19;;;;;;;15.82;9.82;;;8.20;99.90;;;;;;5030731;28;20067;-82
2023/02/25 00:33:47;;;;;;;19.20;9.48;;;8.20;99.90;;;;;;5042036;28;20049;-82
2023/02/25 00:36:19;;;;;;;19.40;10.23;;;8.30;99.90;;;;;;5045497;28;20077;-81
2023/02/25 00:38:48;;;;;;;16.90;9.75;;;8.30;99.90;;;;;;5043228;28;20049;-82
2023/02/25 00:41:17;;;;;;;17.08;9.35;;;8.20;99.90;;;;;;5026439;28;20050;-82
2023/02/25 00:43:52;;;;;;;16.05;8.88;;;8.20;99.90;;;;;;5032197;28;20053;-82
2023/02/25 00:46:19;;;;;;;19.90;10.13;;;8.30;99.90;;;;;;5031867;28;20052;-82
2023/02/25 00:48:46;;;;;;;13.73;8.57;;;8.30;99.90;;;;;;5036511;28;20628;-82
2023/02/25 00:51:16;;;;;;;18.13;9.70;;;8.30;99.90;;;;;;5026498;28;20041;-82
2023/02/25 00:53:44;;;;;;;22.17;10.35;;;8.40;99.90;;;;;;5047402;28;20042;-83
2023/02/25 00:56:14;;;;;;;18.80;9.52;;;8.40;99.90;;;;;;5028305;28;20493;-82
2023/02/25 00:58:43;;;;;;;16.92;8.88;;;8.40;99.90;;;;;;5032571;28;20132;-82
2023/02/25 01:01:24;;;;;;;17.95;9.63;;;8.40;99.90;;;;;;5030876;28;20053;-82
2023/02/25 01:03:52;;;;;;;16.77;10.00;;;8.30;99.90;;;;;;5026722;28;20129;-82
2023/02/25 01:06:19;;;;;;;18.38;9.80;;;8.40;99.90;;;;;;5014075;28;20049;-82
2023/02/25 01:08:47;;;;;;;17.98;9.63;;;8.40;99.90;;;;;;5023639;28;20042;-82
2023/02/25 01:11:19;;;;;;;16.30;10.45;;;8.40;99.90;;;;;;5026317;28;20057;-83
2023/02/25 01:13:49;;;;;;;19.50;9.98;;;8.30;99.90;;;;;;5030507;28;20041;-82
2023/02/25 01:16:22;;;;;;;17.90;11.38;;;8.30;99.90;;;;;;5038729;28;20081;-82
2023/02/25 01:18:57;;;;;;;16.02;9.05;;;8.30;99.90;;;;;;5038890;28;20058;-82
2023/02/25 01:21:27;;;;;;;19.15;10.13;;;8.30;99.90;;;;;;5037128;28;20037;-83
2023/02/25 01:24:00;;;;;;;17.85;10.23;;;8.30;99.90;;;;;;5041477;28;20578;-82
2023/02/25 01:26:29;;;;;;;21.00;10.23;;;8.30;99.90;;;;;;5037604;28;20053;-82
2023/02/25 01:28:55;;;;;;;21.67;10.50;;;8.20;99.90;;;;;;5038264;28;20493;-82
2023/02/25 01:31:27;;;;;;;19.10;10.50;;;8.20;99.90;;;;;;5036716;28;20049;-82
2023/02/25 01:33:59;;;;;;;21.80;11.05;;;8.20;99.90;;;;;;5022673;28;20092;-81
2023/02/25 01:36:27;;;;;;;17.38;10.35;;;8.20;99.90;;;;;;5021489;28;20531;-82
2023/02/25 01:38:55;;;;;;;22.70;10.30;;;8.20;99.90;;;;;;5024478;28;20041;-81
2023/02/25 01:41:23;;;;;;;19.30;10.80;;;8.20;99.90;;;;;;5025530;28;20045;-82
2023/02/25 01:44:16;;;;;;;18.13;11.00;;;8.10;99.90;;;;;;5033116;28;20049;-82
2023/02/25 01:46:44;;;;;;;17.70;9.73;;;8.10;99.90;;;;;;5032967;28;20069;-81
2023/02/25 01:49:16;;;;;;;22.33;10.30;;;8.10;99.90;;;;;;5023469;28;20136;-81
2023/02/25 01:51:46;;;;;;;19.35;10.45;;;8.00;99.90;;;;;;5021859;28;20037;-82
2023/02/25 01:54:14;;;;;;;18.70;10.70;;;8.00;99.90;;;;;;5025894;28;20145;-82
2023/02/25 01:56:47;;;;;;;18.30;10.05;;;8.00;99.90;;;;;;5027797;28;20479;-81
2023/02/25 01:59:15;;;;;;;17.27;10.07;;;8.00;99.90;;;;;;5030775;28;20068;-82
2023/02/25 02:01:42;;;;;;;18.55;10.90;;;8.00;99.90;;;;;;5029797;28;20517;-82
2023/02/25 02:04:11;;;;;;;19.08;9.48;;;8.10;99.90;;;;;;5020742;28;20142;-82
2023/02/25 02:06:42;;;;;;;15.68;10.45;;;8.10;99.90;;;;;;5025537;28;20056;-82
2023/02/25 02:09:13;;;;;;;;;;;8.10;99.90;;;;;;5041106;28;20045;-81
2023/02/25 02:11:41;;;;;;;14.02;8.63;;;8.10;99.90;;;;;;5027340;28;19983;-81
2023/02/25 02:14:11;;;;;;;18.83;10.07;;;8.00;99.90;;;;;;5027682;28;20077;-82
2023/02/25 02:16:50;;;;;;;17.73;8.93;;;7.90;99.90;;;;;;5015875;28;20043;-81
2023/02/25 02:19:42;;;;;;;16.10;9.63;;;7.80;99.90;;;;;;5021047;28;20053;-81
2023/02/25 02:22:26;;;;;;;14.85;9.80;;;7.70;99.90;;;;;;5022490;28;20125;-81
2023/02/25 02:25:01;;;;;;;16.75;9.88;;;7.70;99.90;;;;;;5023325;28;20080;-82
2023/02/25 02:27:50;;;;;;;22.70;10.65;;;7.70;99.90;;;;;;5032577;28;20528;-82
2023/02/25 02:30:25;;;;;;;17.17;9.68;;;7.60;99.90;;;;;;5038063;28;20647;-81
2023/02/25 02:33:00;;;;;;;19.08;9.55;;;7.60;99.90;;;;;;5017050;28;20050;-81
2023/02/25 02:35:42;;;;;;;20.20;10.10;;;7.50;99.90;;;;;;5023124;28;20102;-82
2023/02/25 02:38:30;;;;;;;18.60;9.80;;;7.50;99.90;;;;;;5022950;28;20046;-82
2023/02/25 02:41:12;;;;;;;17.88;10.48;;;7.50;99.90;;;;;;5025262;28;20045;-81
2023/02/25 02:43:56;;;;;;;19.35;11.02;;;7.60;99.90;;;;;;5042617;28;20425;-81
2023/02/25 02:46:32;;;;;;;17.50;10.15;;;7.50;99.90;;;;;;5017557;28;20052;-82
2023/02/25 02:49:11;;;;;;;19.25;10.85;;;7.50;99.90;;;;;;5019901;28;20053;-81
2023/02/25 02:51:55;;;;;;;17.88;10.55;;;7.50;99.90;;;;;;5026861;28;20105;-82
2023/02/25 02:54:26;;;;;;;21.38;10.63;;;7.50;99.90;;;;;;5028059;28;20093;-82
2023/02/25 02:56:54;;;;;;;17.50;9.90;;;7.50;99.90;;;;;;5025297;28;20573;-81
2023/02/25 02:59:31;;;;;;;19.00;10.93;;;7.50;99.90;;;;;;5012515;28;20050;-82
2023/02/25 03:02:14;;;;;;;18.38;10.63;;;7.40;99.90;;;;;;5018635;28;20042;-82
2023/02/25 03:04:44;;;;;;;21.17;10.80;;;7.40;99.90;;;;;;5020777;28;20470;-81
2023/02/25 03:07:12;;;;;;;25.90;10.83;;;7.40;99.90;;;;;;5025700;28;20050;-82
2023/02/25 03:09:45;;;;;;;18.70;12.15;;;7.30;99.90;;;;;;5031041;28;20136;-82
2023/02/25 03:12:12;;;;;;;15.77;9.55;;;7.40;99.90;;;;;;5023239;28;20050;-82
2023/02/25 03:14:39;;;;;;;18.20;9.50;;;7.30;99.90;;;;;;5017835;28;20441;-81
2023/02/25 03:17:12;;;;;;;15.85;8.70;;;7.30;99.90;;;;;;5020168;28;20046;-82
2023/02/25 03:20:00;;;;;;;17.05;8.30;;;7.20;99.90;;;;;;5040870;28;20053;-82
2023/02/25 03:22:32;;;;;;;15.20;7.25;;;7.20;99.90;;;;;;5025463;28;20053;-82
2023/02/25 03:25:20;;;;;;;12.77;7.50;;;7.20;99.90;;;;;;5019595;28;20073;-81
2023/02/25 03:27:51;;;;;;;12.70;7.68;;;7.20;99.90;;;;;;5017261;28;20097;-82
2023/02/25 03:30:34;;;;;;;11.60;6.15;;;7.20;99.90;;;;;;5018695;28;20489;-82
2023/02/25 03:33:03;;;;;;;14.13;7.45;;;7.10;99.90;;;;;;5022756;28;20041;-82
2023/02/25 03:35:33;;;;;;;13.38;6.82;;;7.10;99.90;;;;;;5030026;28;20469;-82
2023/02/25 03:38:04;;;;;;;15.30;7.40;;;7.20;99.90;;;;;;5038907;28;20047;-83
2023/02/25 03:40:32;;;;;;;10.45;6.40;;;7.20;99.90;;;;;;5026114;28;20137;-81
2023/02/25 03:43:36;;;;;;;15.35;7.20;;;7.30;99.90;;;;;;5012485;28;20513;-81
2023/02/25 03:46:04;;;;;;;11.20;6.40;;;7.30;99.90;;;;;;5009134;28;20052;-80
2023/02/25 03:48:33;;;;;;;11.13;6.65;;;7.30;99.90;;;;;;5020611;28;20073;-81
2023/02/25 03:51:02;;;;;;;11.95;6.43;;;7.30;99.90;;;;;;5028093;28;20044;-81
2023/02/25 03:53:30;;;;;;;12.07;6.13;;;7.40;99.90;;;;;;5025831;28;20124;-82
2023/02/25 03:56:04;;;;;;;10.15;6.38;;;7.40;99.90;;;;;;5016830;28;20045;-82
2023/02/25 03:58:37;;;;;;;14.77;6.65;;;7.40;99.90;;;;;;5034437;28;20044;-81
2023/02/25 04:01:12;;;;;;;13.82;6.15;;;7.40;99.90;;;;;;5021874;28;20100;-81
2023/02/25 04:03:42;;;;;;;15.60;5.95;;;7.40;99.90;;;;;;5011374;28;20050;-82
2023/02/25 04:06:11;;;;;;;13.18;6.50;;;7.40;99.90;;;;;;5026186;28;20509;-81
2023/02/25 04:08:39;;;;;;;11.30;6.20;;;7.40;99.90;;;;;;5015991;28;20050;-81
2023/02/25 04:11:06;;;;;;;12.20;6.15;;;7.30;99.90;;;;;;5017021;28;20073;-81
2023/02/25 04:13:33;;;;;;;12.93;6.82;;;7.30;99.90;;;;;;5018939;28;20501;-82
2023/02/25 04:16:00;;;;;;;11.43;5.93;;;7.30;99.90;;;;;;5018999;28;20205;-81
2023/02/25 04:18:27;;;;;;;11.00;6.03;;;7.20;99.90;;;;;;5028316;28;20049;-81
2023/02/25 04:20:54;;;;;;;15.25;6.28;;;7.20;99.90;;;;;;5033485;28;20484;-81
2023/02/25 04:23:21;;;;;;;10.20;6.30;;;7.20;99.90;;;;;;5014697;28;20445;-81
2023/02/25 04:25:49;;;;;;;9.93;5.85;;;7.20;99.90;;;;;;5016458;28;20076;-82
2023/02/25 04:28:15;;;;;;;8.93;5.82;;;7.20;99.90;;;;;;5036694;28;20047;-82
2023/02/25 04:30:42;;;;;;;11.40;5.72;;;7.20;99.90;;;;;;5026887;28;20041;-81
2023/02/25 04:33:10;;;;;;;11.10;5.65;;;7.20;99.90;;;;;;5031564;28;20473;-81
2023/02/25 04:35:38;;;;;;;13.07;5.88;;;7.20;99.90;;;;;;5025178;28;20056;-80
2023/02/25 04:38:05;;;;;;;13.52;6.78;;;7.00;99.90;;;;;;5034509;28;20119;-81
2023/02/25 04:40:35;;;;;;;8.80;5.45;;;7.10;99.90;;;;;;5021784;28;20516;-82
2023/02/25 04:43:02;;;;;;;8.20;4.80;;;7.10;99.90;;;;;;5027327;28;20042;-81
2023/02/25 04:45:28;;;;;;;10.27;5.50;;;7.10;99.90;;;;;;5027373;28;20054;-81
2023/02/25 04:47:58;;;;;;;11.90;5.70;;;7.20;99.90;;;;;;5030884;28;20081;-81
2023/02/25 04:50:25;;;;;;;13.65;6.10;;;7.10;99.90;;;;;;5018567;28;20042;-81
2023/02/25 04:52:52;;;;;;;13.43;6.35;;;7.10;99.90;;;;;;5017951;28;20045;-81
2023/02/25 04:55:18;;;;;;;9.20;5.25;;;7.10;99.90;;;;;;5021926;28;20060;-81
2023/02/25 04:57:45;;;;;;;10.23;6.03;;;7.10;99.90;;;;;;5023655;28;20121;-81
2023/02/25 05:00:17;;;;;;;10.18;5.60;;;7.20;99.90;;;;;;5029335;28;20057;-81
2023/02/25 05:02:47;;;;;;;6.95;4.93;;;7.10;99.90;;;;;;5032457;28;20647;-81
2023/02/25 05:05:15;;;;;;;9.25;5.07;;;7.10;99.90;;;;;;5021645;28;20073;-80
2023/02/25 05:07:43;;;;;;;10.10;5.57;;;7.10;99.90;;;;;;5032212;28;20057;-81
2023/02/25 05:10:11;;;;;;;11.65;5.97;;;7.20;99.90;;;;;;5022700;28;20038;-82
2023/02/25 05:12:38;;;;;;;11.30;5.30;;;7.20;99.90;;;;;;5042611;28;20136;-82
2023/02/25 05:15:07;;;;;;;9.93;5.35;;;7.30;99.90;;;;;;5027907;28;20132;-81
2023/02/25 05:17:34;;;;;;;11.68;5.47;;;7.30;99.90;;;;;;5029545;28;20076;-82
2023/02/25 05:20:05;;;;;;;10.73;5.47;;;7.30;99.90;;;;;;5018520;28;20053;-81
2023/02/25 05:22:32;;;;;;;10.80;5.93;;;7.30;99.90;;;;;;5021039;28;20053;-82
2023/02/25 05:24:59;;;;;;;11.10;5.20;;;7.30;99.90;;;;;;5026297;28;20052;-82
2023/02/25 05:27:25;;;;;;;9.85;5.00;;;7.30;99.90;;;;;;5026820;28;20056;-81
2023/02/25 05:29:53;;;;;;;8.35;4.72;;;7.30;99.90;;;;;;5033231;28;20059;-81
2023/02/25 05:32:20;;;;;;;7.57;4.78;;;7.20;99.90;;;;;;5023924;28;20085;-81
2023/02/25 05:34:47;;;;;;;9.75;4.72;;;7.20;99.90;;;;;;5014952;28;20052;-81
2023/02/25 05:37:15;;;;;;;8.15;4.30;;;7.20;99.90;;;;;;5021914;28;20128;-82
2023/02/25 05:39:41;;;;;;;9.75;4.88;;;7.20;99.90;;;;;;5025128;28;20506;-82
2023/02/25 05:42:08;;;;;;;7.90;4.20;;;7.20;99.90;;;;;;5027718;28;20042;-82
2023/02/25 05:44:35;;;;;;;7.50;4.80;;;7.10;99.90;;;;;;5030946;28;20064;-82
2023/02/25 05:47:01;;;;;;;7.22;4.80;;;7.10;99.90;;;;;;5023441;28;20042;-82
2023/02/25 05:49:28;;;;;;;8.32;4.95;;;7.10;99.90;;;;;;5021520;28;20049;-82
2023/02/25 05:51:55;;;;;;;14.68;7.75;;;7.10;99.90;;;;;;5020529;28;20045;-82
2023/02/25 05:54:21;;;;;;;11.52;4.90;;;7.20;99.90;;;;;;5026815;28;20500;-82
2023/02/25 05:56:51;;;;;;;8.45;5.10;;;7.20;99.90;;;;;;5029531;28;20132;-81
2023/02/25 05:59:19;;;;;;;8.90;5.00;;;7.20;99.90;;;;;;5028642;28;20041;-81
2023/02/25 06:01:46;;;;;;;10.25;6.15;;;7.20;99.90;;;;;;5016590;28;20132;-81
2023/02/25 06:04:13;;;;;;;8.80;5.10;;;7.20;99.90;;;;;;5021156;28;20050;-82
2023/02/25 06:06:40;;;;;;;8.85;4.97;;;7.20;99.90;;;;;;5024318;28;20137;-82
2023/02/25 06:09:09;;;;;;;8.88;5.13;;;7.10;99.90;;;;;;5028926;28;20105;-82
2023/02/25 06:11:35;;;;;;;9.73;4.45;;;7.10;99.90;;;;;;5032023;28;20042;-82
2023/02/25 06:14:02;;;;;;;8.63;4.80;;;7.10;99.90;;;;;;5026992;28;20106;-81
2023/02/25 06:16:30;;;;;;;11.32;5.25;;;7.00;99.90;;;;;;5012763;28;20045;-81
2023/02/25 06:18:59;;;;;;;8.93;4.82;;;7.00;99.90;;;;;;5020976;28;20053;-82
2023/02/25 06:21:26;;;;;;;9.35;5.18;;;7.00;99.90;;;;;;5028305;28;20060;-82
2023/02/25 06:23:53;;;;;;;7.97;4.88;;;7.00;99.90;;;;;;5025738;28;20049;-81
2023/02/25 06:26:20;;;;;;;12.75;5.53;;;7.10;99.90;;;;;;5028500;28;20137;-82
2023/02/25 06:28:48;;;;;;;8.85;5.13;;;7.10;99.90;;;;;;5027264;28;20105;-82
2023/02/25 06:31:16;;;;;;;9.13;5.60;;;7.10;99.90;;;;;;5022682;28;20129;-82
2023/02/25 06:33:45;;;;;;;10.07;4.43;;;7.10;99.90;;;;;;5014861;28;20125;-81
2023/02/25 06:36:13;;;;;;;9.02;5.03;;;7.00;99.90;;;;;;5023852;28;20092;-82
2023/02/25 06:38:41;;;;;;;13.48;5.35;;;7.10;99.90;;;;;;5026348;28;20085;-82
2023/02/25 06:41:14;;;;;;;12.15;4.97;;;7.00;99.90;;;;;;5025432;28;20049;-82
2023/02/25 06:43:41;;;;;;;7.63;4.97;;;7.00;99.90;;;;;;5017293;28;20046;-82
2023/02/25 06:46:10;;;;;;;9.38;5.47;;;6.90;99.90;;;;;;5016804;28;20132;-81
2023/02/25 06:48:37;;;;;;;10.55;5.63;;;7.00;99.90;;;;;;5020422;28;20147;-81
2023/02/25 06:51:08;;;;;;;11.38;5.53;;;7.00;99.90;;;;;;5021759;28;20568;-81
2023/02/25 06:53:39;;;;;;;12.40;5.25;;;7.00;99.90;;;;;;5025287;28;20045;-81
2023/02/25 06:56:07;;;;;;;9.23;5.28;;;7.00;99.90;;;;;;5032583;28;20132;-81
2023/02/25 06:58:35;;;;;;;8.95;5.38;;;7.00;99.90;;;;;;5011762;28;20144;-81
2023/02/25 07:01:06;;;;;;;9.48;5.95;;;7.00;99.90;;;;;;5015862;28;20497;-82
2023/02/25 07:03:33;;;;;;;12.90;6.10;;;7.00;99.90;;;;;;5022283;28;20113;-82
2023/02/25 07:05:59;;;;;;;9.60;5.70;;;7.00;99.90;;;;;;5025711;28;20138;-81
2023/02/25 07:08:26;;;;;;;10.20;5.30;;;7.10;99.90;;;;;;5027110;28;20049;-82
2023/02/25 07:10:53;;;;;;;11.27;6.05;;;7.00;99.90;;;;;;5026534;28;20053;-81
2023/02/25 07:13:19;;;;;;;14.63;5.63;;;7.00;99.90;;;;;;5018554;28;20060;-82
2023/02/25 07:15:46;;;;;;;8.98;5.82;;;7.00;99.90;;;;;;5027780;28;20072;-82
2023/02/25 07:18:13;;;;;;;12.73;5.63;;;6.90;99.90;;;;;;5025315;28;20069;-81
2023/02/25 07:20:39;;;;;;;11.43;5.40;;;6.90;99.90;;;;;;5028421;28;20073;-83
2023/02/25 07:23:06;;;;;;;7.95;5.05;;;6.90;99.90;;;;;;5027649;28;20420;-83
2023/02/25 07:25:33;;;;;;;10.30;5.45;;;6.90;99.90;;;;;;5019293;28;20053;-81
2023/02/25 07:27:59;;;;;;;9.38;5.30;;;6.90;99.90;;;;;;5015405;28;20050;-82
2023/02/25 07:30:26;;;;;;;9.68;5.30;;;6.80;99.90;;;;;;5021560;28;20130;-82
2023/02/25 07:32:53;;;;;;;8.45;4.95;;;6.80;99.90;;;;;;5021600;28;20042;-82
2023/02/25 07:35:19;;;;;;;8.60;4.55;;;6.80;99.90;;;;;;5026490;28;20398;-81
2023/02/25 07:37:46;;;;;;;9.15;5.25;;;6.70;99.90;;;;;;5029328;28;20101;-82
2023/02/25 07:40:15;;;;;;;6.78;4.18;;;6.70;99.90;;;;;;5021636;28;20505;-82
2023/02/25 07:42:42;;;;;;;5.85;3.88;;;6.70;99.90;;;;;;5018249;28;20512;-81
2023/02/25 07:45:10;;;;;;;10.02;4.20;;;6.60;99.90;;;;;;5022246;28;20049;-82
2023/02/25 07:47:37;;;;;;;9.05;4.25;;;6.60;99.90;;;;;;5025474;28;20076;-81
2023/02/25 07:50:05;;;;;;;8.55;4.45;;;6.70;99.90;;;;;;5025339;28;20132;-82
2023/02/25 07:52:32;;;;;;;7.35;3.45;;;6.70;99.90;;;;;;5027706;28;20141;-81
2023/02/25 07:54:58;;;;;;;7.45;3.55;;;6.60;99.90;;;;;;5027435;28;20494;-81
2023/02/25 07:57:26;;;;;;;13.00;4.97;;;6.60;99.90;;;;;;5020817;28;20055;-82
2023/02/25 07:59:53;;;;;;;8.80;4.63;;;6.60;99.90;;;;;;5023686;28;20042;-82
2023/02/25 08:02:20;;;;;;;12.13;4.88;;;6.60;99.90;;;;;;5027922;28;20052;-82
2023/02/25 08:04:47;;;;;;;9.98;4.50;;;6.60;99.90;;;;;;5031829;28;20460;-82
2023/02/25 08:07:13;;;;;;;10.52;4.20;;;6.60;99.90;;;;;;5023480;28;20072;-82
2023/02/25 08:09:40;;;;;;;5.38;3.55;;;6.60;99.90;;;;;;5018336;28;20054;-81
2023/02/25 08:12:07;;;;;;;5.88;3.60;;;6.60;99.90;;;;;;5025994;28;20038;-82
2023/02/25 08:14:36;;;;;;;6.57;3.55;;;6.60;99.90;;;;;;5027024;28;20129;-81
2023/02/25 08:17:02;;;;;;;8.63;3.80;;;6.60;99.90;;;;;;5028138;28;20055;-81
2023/02/25 08:19:29;;;;;;;7.32;3.55;;;6.60;99.90;;;;;;5031792;28;20145;-81
2023/02/25 08:21:55;;;;;;;6.68;3.22;;;6.60;99.90;;;;;;5026873;28;20046;-82
2023/02/25 08:24:22;;;;;;;9.68;3.50;;;6.60;99.90;;;;;;5023474;28;20512;-82
2023/02/25 08:26:49;;;;;;;4.40;3.00;;;6.60;99.90;;;;;;5040370;28;20050;-82
2023/02/25 08:29:16;;;;;;;6.60;2.70;;;6.70;99.90;;;;;;5023475;28;20050;-82
2023/02/25 08:31:42;;;;;;;6.10;3.03;;;6.70;99.90;;;;;;5030329;28;20084;-82
2023/02/25 08:34:10;;;;;;;5.63;2.70;;;6.80;99.90;;;;;;5031443;28;20084;-82
2023/02/25 08:36:37;;;;;;;8.23;2.70;;;6.80;99.90;;;;;;5019127;28;20042;-83
2023/02/25 08:39:04;;;;;;;11.02;3.15;;;6.90;99.90;;;;;;5020142;28;20101;-82
2023/02/25 08:41:30;;;;;;;3.38;2.13;;;6.90;99.90;;;;;;5022588;28;20059;-81
2023/02/25 08:43:59;;;;;;;4.97;2.15;;;6.90;99.90;;;;;;5028738;28;20046;-79
2023/02/25 08:46:29;;;;;;;4.97;2.55;;;7.00;99.90;;;;;;5032656;28;20057;-82
2023/02/25 08:48:56;;;;;;;6.13;2.60;;;6.90;99.90;;;;;;5031118;28;20049;-83
2023/02/25 08:51:32;;;;;;;8.45;2.50;;;7.00;99.90;;;;;;5022861;28;20042;-82
2023/02/25 08:54:06;;;;;;;7.35;2.20;;;7.00;99.90;;;;;;5022118;28;20512;-81
2023/02/25 08:56:35;;;;;;;5.25;2.03;;;7.10;99.90;;;;;;5025297;28;20073;-82
2023/02/25 08:59:03;;;;;;;2.72;1.98;;;7.10;99.90;;;;;;5028335;28;20134;-82
2023/02/25 09:01:43;;;;;;;5.13;2.22;;;7.10;99.90;;;;;;5031701;28;20585;-82
2023/02/25 09:04:18;;;;;;;2.90;1.45;;;7.10;99.90;;;;;;5033679;28;20114;-82
2023/02/25 09:06:48;;;;;;;5.72;2.25;;;7.10;99.90;;;;;;5038634;28;20691;-82
2023/02/25 09:09:16;;;;;;;8.45;1.90;;;7.00;99.90;;;;;;5030320;28;20105;-81
2023/02/25 09:11:44;;;;;;;8.80;2.90;;;7.00;99.90;;;;;;5035568;28;20117;-81
2023/02/25 09:14:11;;;;;;;5.25;1.92;;;7.00;99.90;;;;;;5030688;28;20053;-82
2023/02/25 09:16:39;;;;;;;6.05;2.75;;;6.90;99.90;;;;;;5029939;28;20141;-82
2023/02/25 09:19:06;;;;;;;7.38;2.65;;;7.00;99.90;;;;;;5020837;28;20069;-82
2023/02/25 09:21:34;;;;;;;5.10;2.65;;;7.00;99.90;;;;;;5019495;28;20585;-81
2023/02/25 09:24:01;;;;;;;5.10;2.13;;;6.90;99.90;;;;;;5023708;28;20050;-81
2023/02/25 09:26:28;;;;;;;4.00;2.17;;;6.90;99.90;;;;;;5026283;28;20117;-80
2023/02/25 09:28:54;;;;;;;5.82;2.22;;;6.80;99.90;;;;;;5030776;28;20064;-82
2023/02/25 09:31:21;;;;;;;6.43;3.00;;;6.70;99.90;;;;;;5029525;28;20056;-81
2023/02/25 09:33:48;;;;;;;4.60;2.45;;;6.70;99.90;;;;;;5031279;28;20049;-82
2023/02/25 09:36:19;;;;;;;7.35;2.92;;;6.70;99.90;;;;;;5017967;28;20136;-81
2023/02/25 09:38:47;;;;;;;3.60;2.03;;;6.70;99.90;;;;;;5021660;28;20134;-83
2023/02/25 09:41:30;;;;;;;5.07;2.17;;;6.80;99.90;;;;;;5025325;28;20053;-81
2023/02/25 09:44:22;;;;;;;4.07;2.30;;;6.90;99.90;;;;;;5025697;28;20046;-82
2023/02/25 09:47:14;;;;;;;7.30;2.10;;;7.00;99.90;;;;;;5018607;28;20065;-81
2023/02/25 09:49:58;;;;;;;12.90;2.10;;;7.10;99.90;;;;;;5020074;28;20506;-81
2023/02/25 09:52:35;;;;;;;6.07;2.42;;;7.10;99.90;;;;;;5039662;28;20165;-81
2023/02/25 09:55:34;;;;;;;5.43;2.28;;;7.20;99.90;;;;;;5029255;28;20048;-82
2023/02/25 09:58:10;;;;;;;3.67;1.73;;;7.20;99.90;;;;;;5029889;28;20092;-82
2023/02/25 10:00:56;;;;;;;7.55;2.25;;;7.20;99.90;;;;;;5025551;28;20140;-82
2023/02/25 10:03:39;;;;;;;10.23;2.70;;;7.20;99.90;;;;;;5016720;28;20053;-82
2023/02/25 10:06:32;;;;;;;7.72;1.90;;;7.30;99.90;;;;;;5021890;28;20037;-83
2023/02/25 10:09:33;;;;;;;6.85;2.17;;;7.30;99.90;;;;;;5023465;28;20052;-82
2023/02/25 10:12:32;;;;;;;9.88;2.15;;;7.30;99.90;;;;;;5028657;28;20048;-82
2023/02/25 10:15:31;;;;;;;6.38;1.98;;;7.30;99.90;;;;;;5014417;28;20391;-82
2023/02/25 10:18:17;;;;;;;6.22;2.45;;;7.30;99.90;;;;;;5019262;28;20049;-82
2023/02/25 10:21:02;;;;;;;9.57;3.30;;;7.20;99.90;;;;;;5017807;28;20095;-81
2023/02/25 10:23:36;;;;;;;2.95;1.73;;;7.30;99.90;;;;;;5026282;28;20083;-82
2023/02/25 10:26:08;;;;;;;2.95;1.50;;;7.30;99.90;;;;;;5026934;28;20468;-82
2023/02/25 10:28:35;;;;;;;6.32;2.40;;;7.30;99.90;;;;;;5025998;28;20054;-82
2023/02/25 10:31:07;;;;;;;5.47;1.45;;;7.30;99.90;;;;;;5018709;28;20129;-81
2023/02/25 10:33:36;;;;;;;4.57;1.90;;;7.20;99.90;;;;;;5021293;28;20425;-81
2023/02/25 10:36:20;;;;;;;2.08;1.27;;;7.20;99.90;;;;;;5040416;28;20050;-82
2023/02/25 10:38:51;;;;;;;5.85;2.13;;;7.20;99.90;;;;;;5027297;28;20041;-82
2023/02/25 10:41:21;;;;;;;4.13;1.55;;;7.30;99.90;;;;;;5034526;28;20057;-82
2023/02/25 10:43:49;;;;;;;8.02;2.97;;;7.20;99.90;;;;;;5015675;28;20104;-82
2023/02/25 10:46:45;;;;;;;5.43;2.10;;;7.30;99.90;;;;;;5009714;28;20050;-81
2023/02/25 10:49:27;;;;;;;4.03;1.55;;;7.40;99.90;;;;;;5022367;28;20056;-83
2023/02/25 10:52:04;;;;;;;7.10;1.58;;;7.40;99.90;;;;;;5024681;28;20041;-80
2023/02/25 10:54:53;;;;;;;4.45;1.88;;;7.40;99.90;;;;;;5027672;28;20056;-82
2023/02/25 10:57:26;;;;;;;6.05;1.40;;;7.50;99.90;;;;;;5031367;28;20652;-82
2023/02/25 11:00:01;;;;;;;3.05;1.45;;;7.50;99.90;;;;;;5011150;28;20042;-83
2023/02/25 11:02:31;;;;;;;4.38;1.38;;;7.60;99.90;;;;;;5016009;28;20060;-83
2023/02/25 11:04:57;;;;;;;7.25;1.70;;;7.70;99.90;;;;;;5025023;28;20100;-83
2023/02/25 11:07:40;;;;;;;3.30;1.30;;;7.80;99.90;;;;;;5027121;28;20120;-82
2023/02/25 11:10:18;;;;;;;6.60;1.60;;;7.80;99.90;;;;;;5027094;28;20509;-83
2023/02/25 11:12:54;;;;;;;6.85;2.10;;;7.80;99.90;;;;;;5011348;28;20076;-82
2023/02/25 11:15:35;;;;;;;3.67;1.63;;;7.90;99.90;;;;;;5017624;28;20056;-82
2023/02/25 11:18:20;;;;;;;5.28;1.70;;;7.90;99.90;;;;;;5023181;28;20045;-82
2023/02/25 11:20:53;;;;;;;5.40;1.80;;;7.80;99.90;;;;;;5026452;28;20505;-82
2023/02/25 11:23:26;;;;;;;5.28;1.70;;;7.80;99.90;;;;;;5029446;28;20076;-83
2023/02/25 11:25:54;;;;;;;6.35;2.15;;;7.70;99.90;;;;;;5019526;28;20109;-82
2023/02/25 11:28:31;;;;;;;3.53;1.70;;;7.80;99.90;;;;;;5021245;28;20096;-83
2023/02/25 11:31:18;;;;;;;2.22;1.35;;;7.80;99.90;;;;;;5004374;28;20557;-81
2023/02/25 11:33:56;;;;;;;5.07;1.70;;;7.70;99.90;;;;;;5015495;28;20076;-83
2023/02/25 11:36:24;;;;;;;4.85;1.90;;;7.70;99.90;;;;;;5014638;28;20051;-82
2023/02/25 11:39:12;;;;;;;4.38;2.75;;;7.70;99.90;;;;;;5017094;28;20561;-83
2023/02/25 11:41:38;;;;;;;5.25;2.00;;;7.70;99.90;;;;;;5012142;28;20476;-83
2023/02/25 11:44:27;;;;;;;5.57;1.60;;;7.70;99.90;;;;;;5020639;28;20421;-83
2023/02/25 11:47:02;;;;;;;6.05;1.77;;;7.80;99.90;;;;;;5017656;28;20053;-83
2023/02/25 11:49:49;;;;;;;4.82;1.60;;;7.80;99.90;;;;;;5028899;28;20129;-83
2023/02/25 11:52:38;;;;;;;6.25;1.45;;;7.90;99.90;;;;;;5013136;28;20053;-82
2023/02/25 11:55:35;;;;;;;6.88;1.73;;;8.00;99.90;;;;;;5014417;28;20125;-83
2023/02/25 11:58:13;;;;;;;4.05;1.60;;;8.10;99.90;;;;;;5016531;28;20124;-82
2023/02/25 12:01:03;;;;;;;5.07;1.30;;;8.30;99.90;;;;;;5016871;28;20064;-83
2023/02/25 12:03:39;;;;;;;4.43;1.70;;;8.40;99.90;;;;;;5021598;28;20409;-83
2023/02/25 12:06:27;;;;;;;4.28;1.30;;;8.40;99.90;;;;;;5025435;28;20041;-83
2023/02/25 12:08:57;;;;;;;3.80;1.50;;;8.40;99.90;;;;;;5009967;28;20105;-82
2023/02/25 12:12:01;;;;;;;3.35;1.40;;;8.40;99.90;;;;;;5018464;28;20133;-84
2023/02/25 12:14:43;;;;;;;4.55;1.70;;;8.40;99.90;;;;;;5017481;28;20081;-83
2023/02/25 12:17:19;;;;;;;4.15;1.30;;;8.50;99.90;;;;;;5008752;28;20466;-82
2023/02/25 12:19:58;;;;;;;5.95;1.65;;;8.50;99.90;;;;;;5011666;28;20046;-84
2023/02/25 12:22:46;;;;;;;2.13;1.35;;;8.40;99.90;;;;;;5013491;28;20065;-82
2023/02/25 12:25:29;;;;;;;4.93;2.75;;;8.50;99.90;;;;;;5012451;28;20049;-83
2023/02/25 12:28:05;;;;;;;3.63;1.23;;;8.50;99.90;;;;;;5018056;28;20113;-82
2023/02/25 12:31:00;;;;;;;5.85;0.95;;;8.40;99.90;;;;;;5028905;28;20046;-83
2023/02/25 12:33:51;;;;;;;3.53;1.13;;;8.50;99.90;;;;;;5024747;28;20428;-82
2023/02/25 12:36:43;;;;;;;3.10;1.15;;;8.50;99.90;;;;;;5010857;28;20078;-82
2023/02/25 12:39:22;;;;;;;3.70;1.40;;;8.40;99.90;;;;;;5010709;28;20080;-83
2023/02/25 12:42:12;;;;;;;5.20;1.58;;;8.20;99.90;;;;;;5010497;28;20133;-84
2023/02/25 12:45:17;;;;;;;8.38;1.40;;;8.30;99.90;;;;;;5009854;28;20072;-83
2023/02/25 12:47:46;;;;;;;4.47;1.55;;;8.30;99.90;;;;;;5014400;28;20053;-83
2023/02/25 12:50:39;;;;;;;6.57;2.17;;;8.20;99.90;;;;;;5012640;28;20076;-83
2023/02/25 12:53:12;;;;;;;7.95;2.13;;;8.20;99.90;;;;;;5013753;28;20122;-83
2023/02/25 12:56:01;;;;;;;7.30;2.35;;;8.20;99.90;;;;;;5018440;28;20076;-83
2023/02/25 12:59:05;;;;;;;4.13;1.80;;;8.10;99.90;;;;;;5027230;28;20053;-82
2023/02/25 13:02:13;;;;;;;7.80;1.80;;;8.10;99.90;;;;;;5034042;28;20073;-82
2023/02/25 13:05:08;;;;;;;6.05;1.75;;;8.00;99.90;;;;;;5011306;28;20052;-82
2023/02/25 13:08:12;;;;;;;5.30;2.15;;;7.90;99.90;;;;;;5021898;28;20045;-83
2023/02/25 13:11:01;;;;;;;7.50;2.10;;;7.90;99.90;;;;;;5023100;28;20077;-82
2023/02/25 13:13:38;;;;;;;4.63;1.60;;;7.80;99.90;;;;;;5027573;28;20076;-82
2023/02/25 13:16:25;;;;;;;3.40;1.63;;;7.70;99.90;;;;;;5035561;28;20128;-83
2023/02/25 13:19:13;;;;;;;5.03;2.03;;;7.60;99.90;;;;;;5012551;28;20072;-83
2023/02/25 13:21:58;;;;;;;13.90;4.38;;;7.60;99.90;;;;;;5019032;28;20049;-83